Time;durP1;ratioP1;P1;durP2;ratioP2;P2;SDS_P1;SDS_P2;PMS_P1;PMS_P2;Temp;Humidity;BMP_temperature;BMP_pressure;BME280_temperature;BME280_humidity;BME280_pressure;Samples;Min_cycle;Max_cycle;Signal;HPM_P1;HPM_P2
2022/12/18 00:00:09;;;;;;;0.20;0.20;;;-8.80;99.90;-11.10;98043.00;;;;5070167;28;20279;-73
2022/12/18 00:02:45;;;;;;;0.30;0.30;;;-8.80;99.90;-11.00;98018.00;;;;5077856;28;20209;-72
2022/12/18 00:05:13;;;;;;;0.30;0.30;;;-8.70;99.90;-11.10;98012.00;;;;5071577;28;20201;-72
2022/12/18 00:07:41;;;;;;;0.30;0.30;;;-8.80;99.90;-11.20;98021.00;;;;5091766;28;20250;-73
2022/12/18 00:10:11;;;;;;;0.40;0.40;;;-8.90;99.90;-11.20;97969.00;;;;5081514;28;20224;-72
2022/12/18 00:12:42;;;;;;;0.25;0.25;;;-8.80;99.90;-11.10;98010.00;;;;5085395;28;20193;-72
2022/12/18 00:15:10;;;;;;;0.30;0.30;;;-8.80;99.90;-11.20;98009.00;;;;5085871;28;20254;-73
2022/12/18 00:17:38;;;;;;;0.30;0.30;;;-8.80;99.90;-11.10;98016.00;;;;5084213;28;20234;-73
2022/12/18 00:20:08;;;;;;;0.30;0.30;;;-8.80;99.90;-11.10;97988.00;;;;5086231;28;20615;-72
2022/12/18 00:22:37;;;;;;;0.30;0.30;;;-8.90;99.90;-11.10;97986.00;;;;5071986;28;20205;-72
2022/12/18 00:25:05;;;;;;;0.30;0.30;;;-8.90;99.90;-11.10;97980.00;;;;5078656;28;20213;-72
2022/12/18 00:27:35;;;;;;;0.20;0.20;;;-8.90;99.90;-11.10;97975.00;;;;5080293;28;20194;-72
2022/12/18 00:30:04;;;;;;;0.30;0.30;;;-8.90;99.90;-11.00;97995.00;;;;5088410;28;20623;-72
2022/12/18 00:32:33;;;;;;;0.30;0.30;;;-8.90;99.90;-11.00;98028.00;;;;5083300;28;20247;-72
2022/12/18 00:35:03;;;;;;;0.30;0.30;;;-8.80;99.90;-11.00;98012.00;;;;5077978;28;20246;-72
2022/12/18 00:37:31;;;;;;;0.30;0.30;;;-8.70;99.90;-11.00;98025.00;;;;5084071;28;20202;-75
2022/12/18 00:39:59;;;;;;;0.20;0.20;;;-8.70;99.90;-10.90;98025.00;;;;5083602;28;20213;-74
2022/12/18 00:45:12;;;;;;;0.30;0.30;;;-8.60;99.90;-11.10;97542.00;;;;5063284;28;20232;-72
2022/12/18 00:47:41;;;;;;;0.30;0.30;;;-8.60;99.90;-11.00;97571.00;;;;5077317;28;20197;-72
2022/12/18 00:50:10;;;;;;;0.40;0.40;;;-8.50;99.90;-11.10;97534.00;;;;5084872;28;20231;-72
2022/12/18 00:52:42;;;;;;;0.30;0.30;;;-8.60;99.90;-11.20;97511.00;;;;5080387;28;20221;-71
2022/12/18 00:55:11;;;;;;;0.30;0.30;;;-8.70;99.90;-11.50;97520.00;;;;5089646;28;20193;-72
2022/12/18 00:57:40;;;;;;;0.30;0.30;;;-9.00;99.90;-11.60;97525.00;;;;5077685;28;20197;-73
2022/12/18 01:00:13;;;;;;;0.30;0.30;;;-9.10;99.90;-11.40;97991.00;;;;5068760;28;20225;-72
2022/12/18 01:02:42;;;;;;;0.30;0.30;;;-9.10;99.90;-11.60;97562.00;;;;5068209;28;20570;-71
2022/12/18 01:05:13;;;;;;;0.20;0.20;;;-9.00;99.90;-11.70;97437.00;;;;5088044;28;20229;-71
2022/12/18 01:07:41;;;;;;;0.30;0.30;;;-9.00;99.90;-11.60;97539.00;;;;5086239;28;20197;-72
2022/12/18 01:10:14;;;;;;;0.30;0.30;;;-9.10;99.90;-11.40;98018.00;;;;5073006;28;20213;-71
2022/12/18 01:12:43;;;;;;;0.30;0.30;;;-9.10;99.90;-11.60;98033.00;;;;5085886;28;20190;-72
2022/12/18 01:15:15;;;;;;;0.30;0.30;;;-9.10;99.90;-11.80;98035.00;;;;5081639;28;20213;-72
2022/12/18 01:17:44;;;;;;;0.30;0.30;;;-9.30;99.90;-12.10;98035.00;;;;5075742;28;20695;-72
2022/12/18 01:20:13;;;;;;;0.30;0.30;;;-9.30;99.90;-11.60;98045.00;;;;5080559;28;20222;-72
2022/12/18 01:22:42;;;;;;;0.30;0.30;;;-9.30;99.90;-11.50;98061.00;;;;5070478;28;20681;-71
2022/12/18 01:25:10;;;;;;;0.30;0.30;;;-9.10;99.90;-11.60;98049.00;;;;5077554;28;20692;-71
2022/12/18 01:27:38;;;;;;;0.30;0.30;;;-9.20;99.90;-11.60;98051.00;;;;5066005;28;20258;-71
2022/12/18 01:30:08;;;;;;;0.30;0.30;;;-9.20;99.90;-11.50;98055.00;;;;5069907;28;20225;-71
2022/12/18 01:32:37;;;;;;;0.40;0.40;;;-9.20;99.90;-11.50;98044.00;;;;5076824;28;20611;-72
2022/12/18 01:35:07;;;;;;;0.20;0.20;;;-9.10;99.90;-11.40;98055.00;;;;5079384;28;20669;-71
2022/12/18 01:37:35;;;;;;;0.30;0.30;;;-9.20;99.90;-11.50;98065.00;;;;5082463;28;20266;-71
2022/12/18 01:40:04;;;;;;;0.30;0.30;;;-9.20;99.90;-11.50;98065.00;;;;5080909;28;20217;-70
2022/12/18 01:42:32;;;;;;;0.20;0.20;;;-9.10;99.90;-11.60;98075.00;;;;5094336;28;20208;-71
2022/12/18 01:45:22;;;;;;;0.30;0.30;;;-9.20;99.90;-11.50;98054.00;;;;5078005;28;20296;-71
2022/12/18 01:47:55;;;;;;;0.30;0.30;;;-9.20;99.90;-11.50;98105.00;;;;5071725;28;20218;-71
2022/12/18 01:50:28;;;;;;;0.30;0.30;;;-9.10;99.90;-11.70;98082.00;;;;5070844;28;20283;-71
2022/12/18 01:53:00;;;;;;;0.30;0.30;;;-9.30;99.90;-11.90;98044.00;;;;5081348;28;20189;-71
2022/12/18 01:55:33;;;;;;;0.30;0.30;;;-9.50;99.90;-11.80;98055.00;;;;5083026;28;20732;-72
2022/12/18 01:58:01;;;;;;;0.50;0.50;;;-9.50;99.90;-11.80;98067.00;;;;5069300;28;20228;-71
2022/12/18 02:00:30;;;;;;;0.30;0.30;;;-9.40;99.90;-11.70;97958.00;;;;5073298;28;20213;-71
2022/12/18 02:03:00;;;;;;;0.30;0.30;;;-9.30;99.90;-11.50;98061.00;;;;5070967;28;20198;-71
2022/12/18 02:05:44;;;;;;;0.30;0.30;;;-9.20;99.90;-11.40;98061.00;;;;5094592;28;20245;-71
2022/12/18 02:08:29;;;;;;;0.30;0.30;;;-9.10;99.90;-11.30;98062.00;;;;5078748;28;20215;-74
2022/12/18 02:11:08;;;;;;;0.30;0.30;;;-9.00;99.90;-11.50;98062.00;;;;5068557;28;20649;-71
2022/12/18 02:13:47;;;;;;;0.30;0.30;;;-9.30;99.90;-11.80;98081.00;;;;5084730;28;20202;-72
2022/12/18 02:16:30;;;;;;;0.30;0.30;;;-9.60;99.90;-12.00;98060.00;;;;5081395;28;20205;-71
2022/12/18 02:19:16;;;;;;;0.30;0.30;;;-9.70;99.90;-12.00;98042.00;;;;5067582;28;20255;-71
2022/12/18 02:21:58;;;;;;;0.30;0.30;;;-9.70;99.90;-12.10;98046.00;;;;5067904;28;20202;-72
2022/12/18 02:24:38;;;;;;;0.30;0.30;;;-9.70;99.90;-12.20;98063.00;;;;5080279;28;20278;-72
2022/12/18 02:27:10;;;;;;;0.30;0.30;;;-9.90;99.90;-12.20;98050.00;;;;5078937;28;20276;-72
2022/12/18 02:29:47;;;;;;;0.30;0.30;;;-9.90;99.90;-12.40;98068.00;;;;5099123;28;20306;-73
2022/12/18 02:32:29;;;;;;;0.25;0.25;;;-10.00;99.90;-12.40;98043.00;;;;5080686;28;20204;-71
2022/12/18 02:35:00;;;;;;;0.30;0.30;;;-10.00;99.90;-12.30;98030.00;;;;5076426;28;20623;-71
2022/12/18 02:37:34;;;;;;;0.30;0.30;;;-10.00;99.90;-12.30;98044.00;;;;5077442;28;20201;-71
2022/12/18 02:40:06;;;;;;;0.30;0.30;;;-9.90;99.90;-12.10;98048.00;;;;5081301;28;20212;-72
2022/12/18 02:42:38;;;;;;;0.30;0.30;;;-9.80;99.90;-12.20;98042.00;;;;5074823;28;20194;-71
2022/12/18 02:45:10;;;;;;;0.20;0.20;;;-9.90;99.90;-12.30;98014.00;;;;5074610;28;20312;-72
2022/12/18 02:47:42;;;;;;;0.20;0.20;;;-9.90;99.90;-12.30;98042.00;;;;5081163;28;20232;-71
2022/12/18 02:50:26;;;;;;;0.20;0.20;;;-10.00;99.90;-12.60;98024.00;;;;5081826;28;20224;-71
2022/12/18 02:53:12;;;;;;;0.30;0.30;;;-10.00;99.90;-12.40;98043.00;;;;5072687;28;20661;-70
2022/12/18 02:55:53;;;;;;;0.30;0.30;;;-10.00;99.90;-12.40;98032.00;;;;5090369;28;20675;-71
2022/12/18 02:58:34;;;;;;;0.30;0.30;;;-10.00;99.90;-12.30;98056.00;;;;5068150;28;20222;-74
2022/12/18 03:01:17;;;;;;;0.30;0.30;;;-10.00;99.90;-12.40;98035.00;;;;5082620;28;20202;-71
2022/12/18 03:03:51;;;;;;;0.50;0.50;;;-10.00;99.90;-12.50;98026.00;;;;5099132;28;20197;-71
2022/12/18 03:06:25;;;;;;;0.40;0.40;;;-10.10;99.90;-12.50;98034.00;;;;5082454;28;20231;-74
2022/12/18 03:09:00;;;;;;;0.30;0.30;;;-10.10;99.90;-12.70;97970.00;;;;5082533;28;20240;-73
2022/12/18 03:14:22;;;;;;;0.20;0.20;;;-10.30;99.90;-12.90;97991.00;;;;5037940;28;20201;-74
2022/12/18 03:16:58;;;;;;;0.30;0.30;;;-10.50;99.90;-12.80;98011.00;;;;5089961;28;20246;-73
2022/12/18 03:19:32;;;;;;;0.28;0.28;;;-10.30;99.90;-12.90;98052.00;;;;5078915;28;20214;-73
2022/12/18 03:22:08;;;;;;;0.30;0.30;;;-10.40;99.90;-13.10;98012.00;;;;5083246;28;20198;-73
2022/12/18 03:24:47;;;;;;;0.30;0.30;;;-10.50;99.90;-13.00;98011.00;;;;5073179;28;20588;-74
2022/12/18 03:27:23;;;;;;;0.30;0.30;;;-10.40;99.90;-12.80;98015.00;;;;5070553;28;20200;-73
2022/12/18 03:30:07;;;;;;;0.30;0.30;;;-10.40;99.90;-12.70;98015.00;;;;5073835;28;20580;-73
2022/12/18 03:32:43;;;;;;;0.30;0.30;;;-10.20;99.90;-12.60;98000.00;;;;5075233;28;20194;-73
2022/12/18 03:35:22;;;;;;;0.30;0.30;;;-10.20;99.90;-12.60;98008.00;;;;5079268;28;20193;-74
2022/12/18 03:37:51;;;;;;;0.40;0.40;;;-10.10;99.90;-12.90;97878.00;;;;5075349;28;20197;-73
2022/12/18 03:40:27;;;;;;;0.20;0.20;;;-10.00;99.90;-12.40;98016.00;;;;5083887;28;20654;-73
2022/12/18 03:43:06;;;;;;;0.30;0.30;;;-10.00;99.90;-12.70;98000.00;;;;5084044;28;20197;-74
2022/12/18 03:45:43;;;;;;;0.20;0.20;;;-10.10;99.90;-12.70;98007.00;;;;5070462;28;20224;-74
2022/12/18 03:48:20;;;;;;;0.30;0.30;;;-10.20;99.90;-12.60;98037.00;;;;5072679;28;20197;-74
2022/12/18 03:50:56;;;;;;;0.30;0.30;;;-10.10;99.90;-12.60;98012.00;;;;5074120;28;20220;-73
2022/12/18 03:53:35;;;;;;;0.30;0.30;;;-10.10;99.90;-12.50;98024.00;;;;5094364;28;20202;-73
2022/12/18 03:56:06;;;;;;;0.30;0.30;;;-10.10;99.90;-12.40;98025.00;;;;5076911;28;20237;-73
2022/12/18 03:58:42;;;;;;;0.28;0.28;;;-10.10;99.90;-12.40;98030.00;;;;5086259;28;20812;-74
2022/12/18 04:01:26;;;;;;;0.30;0.30;;;-10.00;99.90;-12.40;98012.00;;;;5066277;28;20680;-74
2022/12/18 04:03:57;;;;;;;0.40;0.40;;;-9.90;99.90;-12.60;98015.00;;;;5091857;28;20247;-75
2022/12/18 04:06:28;;;;;;;0.30;0.30;;;-10.10;99.90;-12.60;98026.00;;;;5082415;28;20309;-74
2022/12/18 04:08:58;;;;;;;0.20;0.20;;;-10.20;99.90;-12.70;98033.00;;;;5079566;28;20596;-74
2022/12/18 04:11:27;;;;;;;0.30;0.30;;;-10.20;99.90;-12.70;98056.00;;;;5078925;28;20205;-75
2022/12/18 04:13:57;;;;;;;0.20;0.20;;;-10.20;99.90;-12.70;98047.00;;;;5083351;28;20204;-74
2022/12/18 04:16:29;;;;;;;0.25;0.25;;;-10.20;99.90;-12.70;98057.00;;;;5078531;28;20209;-74
2022/12/18 04:19:00;;;;;;;0.30;0.30;;;-10.30;99.90;-12.70;98034.00;;;;5079299;28;20221;-74
2022/12/18 04:21:32;;;;;;;0.30;0.30;;;-10.30;99.90;-12.70;98058.00;;;;5070565;28;20248;-74
2022/12/18 04:24:01;;;;;;;0.30;0.30;;;-10.30;99.90;-12.80;98044.00;;;;5073242;28;20701;-74
2022/12/18 04:26:30;;;;;;;0.28;0.28;;;-10.30;99.90;-12.80;98044.00;;;;5076175;28;20224;-74
2022/12/18 04:29:12;;;;;;;0.30;0.30;;;-10.30;99.90;-12.60;98060.00;;;;5079439;28;20580;-74
2022/12/18 04:31:42;;;;;;;0.30;0.30;;;-10.20;99.90;-12.40;98054.00;;;;5076856;28;20228;-74
2022/12/18 04:34:10;;;;;;;0.30;0.30;;;-10.00;99.90;-12.20;98084.00;;;;5084787;28;20767;-74
2022/12/18 04:36:44;;;;;;;0.43;0.43;;;-9.90;99.90;-12.30;98062.00;;;;5071110;28;20232;-74
2022/12/18 04:39:14;;;;;;;0.30;0.30;;;-9.90;99.90;-12.70;98045.00;;;;5080892;28;20217;-74
2022/12/18 04:41:42;;;;;;;0.30;0.30;;;-10.20;99.90;-12.70;98049.00;;;;5066991;28;20181;-73
2022/12/18 04:44:13;;;;;;;0.30;0.30;;;-10.30;99.90;-12.70;98062.00;;;;5073920;28;20197;-73
2022/12/18 04:46:43;;;;;;;0.30;0.30;;;-10.20;99.90;-12.70;98048.00;;;;5084542;28;20221;-74
2022/12/18 04:49:12;;;;;;;0.40;0.40;;;-10.30;99.90;-12.80;97955.00;;;;5085900;28;20301;-73
2022/12/18 04:51:40;;;;;;;0.50;0.50;;;-10.40;99.90;-12.80;98040.00;;;;5085015;28;20197;-74
2022/12/18 04:54:09;;;;;;;0.40;0.40;;;-10.40;99.90;-12.90;98051.00;;;;5083128;28;20606;-74
2022/12/18 04:56:37;;;;;;;0.30;0.30;;;-10.40;99.90;-12.80;98051.00;;;;5083474;28;20262;-74
2022/12/18 04:59:05;;;;;;;0.40;0.40;;;-10.30;99.90;-12.90;98053.00;;;;5077957;28;20273;-74
2022/12/18 05:01:34;;;;;;;0.30;0.30;;;-10.40;99.90;-13.00;98049.00;;;;5077447;28;20194;-74
2022/12/18 05:04:05;;;;;;;0.30;0.30;;;-10.50;99.90;-12.90;98038.00;;;;5083500;28;20208;-74
2022/12/18 05:06:33;;;;;;;0.30;0.30;;;-10.40;99.90;-13.10;98028.00;;;;5080680;28;20221;-74
2022/12/18 05:09:02;;;;;;;0.30;0.30;;;-10.50;99.90;-13.00;98037.00;;;;5082862;28;20658;-74
2022/12/18 05:11:30;;;;;;;0.30;0.30;;;-10.40;99.90;-12.70;98051.00;;;;5073403;28;20190;-74
2022/12/18 05:13:58;;;;;;;0.30;0.30;;;-10.30;99.90;-12.80;98049.00;;;;5079075;28;20236;-74
2022/12/18 05:16:26;;;;;;;0.30;0.30;;;-10.30;99.90;-12.90;98051.00;;;;5080357;28;20374;-74
2022/12/18 05:18:54;;;;;;;0.50;0.50;;;-10.40;99.90;-13.00;98052.00;;;;5080823;28;20212;-74
2022/12/18 05:21:23;;;;;;;0.22;0.22;;;-10.50;99.90;-12.90;98059.00;;;;5067998;28;20205;-74
2022/12/18 05:23:51;;;;;;;0.50;0.50;;;-10.40;99.90;-12.90;98059.00;;;;5075638;28;20188;-75
2022/12/18 05:26:20;;;;;;;0.45;0.45;;;-10.30;99.90;-12.80;98063.00;;;;5084025;28;20209;-75
2022/12/18 05:28:48;;;;;;;0.30;0.30;;;-10.30;99.90;-12.90;98075.00;;;;5073575;28;20762;-75
2022/12/18 05:31:16;;;;;;;0.30;0.30;;;-10.40;99.90;-13.00;98054.00;;;;5080907;28;20251;-75
2022/12/18 05:33:44;;;;;;;0.30;0.30;;;-10.40;99.90;-13.10;98060.00;;;;5075689;28;20760;-75
2022/12/18 05:36:12;;;;;;;0.22;0.22;;;-10.60;99.90;-13.10;98054.00;;;;5076685;28;20197;-74
2022/12/18 05:38:42;;;;;;;0.30;0.30;;;-10.70;99.90;-13.00;98043.00;;;;5072470;28;20640;-74
2022/12/18 05:41:10;;;;;;;0.22;0.22;;;-10.70;99.90;-13.00;97921.00;;;;5072115;28;20255;-74
2022/12/18 05:43:40;;;;;;;0.30;0.30;;;-10.70;99.90;-12.80;98105.00;;;;5082217;28;20613;-75
2022/12/18 05:46:13;;;;;;;0.30;0.30;;;-10.50;99.90;-12.80;98083.00;;;;5074130;28;20239;-74
2022/12/18 05:48:42;;;;;;;0.30;0.30;;;-10.40;99.90;-12.70;98074.00;;;;5088373;28;20561;-75
2022/12/18 05:51:14;;;;;;;0.30;0.30;;;-10.40;99.90;-12.80;98087.00;;;;5081814;28;20255;-75
2022/12/18 05:53:44;;;;;;;0.22;0.22;;;-10.40;99.90;-12.70;98074.00;;;;5082845;28;20250;-73
2022/12/18 05:56:16;;;;;;;0.40;0.40;;;-10.30;99.90;-12.60;98093.00;;;;5082399;28;20205;-73
2022/12/18 05:58:44;;;;;;;0.30;0.30;;;-10.30;99.90;-12.50;98093.00;;;;5068797;28;20254;-74
2022/12/18 06:01:16;;;;;;;0.30;0.30;;;-10.10;99.90;-12.40;98123.00;;;;5066901;28;20262;-74
2022/12/18 06:03:45;;;;;;;0.40;0.40;;;-10.10;99.90;-12.50;98094.00;;;;5074037;28;20184;-74
2022/12/18 06:06:16;;;;;;;0.30;0.30;;;-10.20;99.90;-12.50;98106.00;;;;5088059;28;20220;-74
2022/12/18 06:08:45;;;;;;;0.30;0.30;;;-10.10;99.90;-12.50;98088.00;;;;5067019;28;20212;-74
2022/12/18 06:11:16;;;;;;;0.22;0.22;;;-10.10;99.90;-12.40;98078.00;;;;5077294;28;20201;-74
2022/12/18 06:13:44;;;;;;;0.30;0.30;;;-10.00;99.90;-12.40;98094.00;;;;5076929;28;20197;-74
2022/12/18 06:16:13;;;;;;;0.30;0.30;;;-10.00;99.90;-12.50;98078.00;;;;5078694;28;20732;-74
2022/12/18 06:18:41;;;;;;;0.30;0.30;;;-10.10;99.90;-12.50;98107.00;;;;5086413;28;20266;-74
2022/12/18 06:21:09;;;;;;;0.30;0.30;;;-10.10;99.90;-12.50;98091.00;;;;5069181;28;20743;-75
2022/12/18 06:23:37;;;;;;;0.30;0.30;;;-10.10;99.90;-12.40;98101.00;;;;5081489;28;20197;-74
2022/12/18 06:26:11;;;;;;;0.30;0.30;;;-10.10;99.90;-12.40;98090.00;;;;5073592;28;20213;-74
2022/12/18 06:28:39;;;;;;;0.30;0.30;;;-10.10;99.90;-12.40;98115.00;;;;5078546;28;20305;-75
2022/12/18 06:31:08;;;;;;;0.40;0.40;;;-10.10;99.90;-13.00;98106.00;;;;5082143;28;20197;-74
2022/12/18 06:33:37;;;;;;;0.40;0.40;;;-10.20;99.90;-12.70;98111.00;;;;5079424;28;20274;-75
2022/12/18 06:36:10;;;;;;;0.30;0.30;;;-10.20;99.90;-12.80;98127.00;;;;5080370;28;20247;-75
2022/12/18 06:38:41;;;;;;;0.20;0.20;;;-10.30;99.90;-12.80;98113.00;;;;5089389;28;20221;-76
2022/12/18 06:41:13;;;;;;;0.30;0.30;;;-10.30;99.90;-12.90;98080.00;;;;5078952;28;20185;-76
2022/12/18 06:43:41;;;;;;;0.40;0.40;;;-10.50;99.90;-13.00;98009.00;;;;5071269;28;20201;-75
2022/12/18 06:46:10;;;;;;;0.20;0.20;;;-10.60;99.90;-13.10;98083.00;;;;5080277;28;20201;-76
2022/12/18 06:48:39;;;;;;;0.30;0.30;;;-10.60;99.90;-13.10;98078.00;;;;5066757;28;20624;-75
2022/12/18 06:51:07;;;;;;;0.50;0.50;;;-10.70;99.90;-13.10;98090.00;;;;5073900;28;20263;-75
2022/12/18 06:53:35;;;;;;;0.30;0.30;;;-10.70;99.90;-13.20;98076.00;;;;5077025;28;20243;-74
2022/12/18 06:56:06;;;;;;;0.30;0.30;;;-10.80;99.90;-13.10;98060.00;;;;5081659;28;20516;-74
2022/12/18 06:58:39;;;;;;;0.30;0.30;;;-10.70;99.90;-13.10;98090.00;;;;5075879;28;20231;-75
2022/12/18 07:01:11;;;;;;;0.30;0.30;;;-10.70;99.90;-13.20;98182.00;;;;5071892;28;20689;-74
2022/12/18 07:03:40;;;;;;;0.30;0.30;;;-10.80;99.90;-13.20;97886.00;;;;5064933;28;20597;-75
2022/12/18 07:06:15;;;;;;;0.40;0.40;;;-10.80;99.90;-13.20;98040.00;;;;5061601;28;20198;-74
2022/12/18 07:08:44;;;;;;;0.28;0.28;;;-10.80;99.90;-13.20;98044.00;;;;5062076;28;20216;-74
2022/12/18 07:11:12;;;;;;;0.30;0.30;;;-10.70;99.90;-13.10;98042.00;;;;5060275;28;20573;-75
2022/12/18 07:13:42;;;;;;;0.30;0.30;;;-10.70;99.90;-13.00;98057.00;;;;5074467;28;20205;-73
2022/12/18 07:16:14;;;;;;;0.30;0.30;;;-10.70;99.90;-13.20;98054.00;;;;5086063;28;20201;-76
2022/12/18 07:18:51;;;;;;;0.30;0.30;;;-10.80;99.90;-13.20;98065.00;;;;5076721;28;20247;-75
2022/12/18 07:21:20;;;;;;;0.50;0.50;;;-10.80;99.90;-13.00;98079.00;;;;5079544;28;20202;-75
2022/12/18 07:23:49;;;;;;;0.30;0.30;;;-10.60;99.90;-12.90;98086.00;;;;5072512;28;20189;-75
2022/12/18 07:26:20;;;;;;;0.40;0.40;;;-10.50;99.90;-12.90;97962.00;;;;5093028;28;20223;-76
2022/12/18 07:28:50;;;;;;;0.22;0.22;;;-10.60;99.90;-12.90;98080.00;;;;5083254;28;20611;-75
2022/12/18 07:31:21;;;;;;;0.50;0.50;;;-10.50;99.90;-12.90;98094.00;;;;5079701;28;20255;-75
2022/12/18 07:33:51;;;;;;;0.22;0.22;;;-10.60;99.90;-13.00;98089.00;;;;5086918;28;20197;-76
2022/12/18 07:36:20;;;;;;;0.30;0.30;;;-10.70;99.90;-13.10;98095.00;;;;5083671;28;20920;-74
2022/12/18 07:38:50;;;;;;;0.30;0.30;;;-10.80;99.90;-13.10;98105.00;;;;5069280;28;20209;-74
2022/12/18 07:41:18;;;;;;;0.30;0.30;;;-10.80;99.90;-13.00;98110.00;;;;5069759;28;20225;-74
2022/12/18 07:43:47;;;;;;;0.20;0.20;;;-10.70;99.90;-12.90;98130.00;;;;5078952;28;20285;-74
2022/12/18 07:46:17;;;;;;;0.40;0.40;;;-10.50;99.90;-12.80;98125.00;;;;5075798;28;20542;-75
2022/12/18 07:48:46;;;;;;;0.28;0.28;;;-10.40;99.90;-12.70;98114.00;;;;5077944;28;20216;-75
2022/12/18 07:51:18;;;;;;;0.30;0.30;;;-10.30;99.90;-12.70;98134.00;;;;5079557;28;20206;-75
2022/12/18 07:53:47;;;;;;;0.43;0.43;;;-10.30;99.90;-12.80;98109.00;;;;5066934;28;20683;-77
2022/12/18 07:56:21;;;;;;;0.50;0.50;;;-10.50;99.90;-12.90;98085.00;;;;5083106;28;20198;-75
2022/12/18 07:58:55;;;;;;;0.30;0.30;;;-10.60;99.90;-12.80;98087.00;;;;5071778;28;20584;-76
2022/12/18 08:01:25;;;;;;;0.50;0.50;;;-10.50;99.90;-12.70;98087.00;;;;5069810;28;20210;-76
2022/12/18 08:03:53;;;;;;;0.30;0.30;;;-10.40;99.90;-12.50;98100.00;;;;5074298;28;20276;-75
2022/12/18 08:06:21;;;;;;;0.30;0.30;;;-10.20;99.90;-12.30;98117.00;;;;5082119;28;20201;-78
2022/12/18 08:08:53;;;;;;;0.40;0.40;;;-10.00;99.90;-12.10;98132.00;;;;5079015;28;20232;-74
2022/12/18 08:11:23;;;;;;;0.30;0.30;;;-9.90;99.90;-11.90;98141.00;;;;5083490;28;20276;-74
2022/12/18 08:13:51;;;;;;;0.30;0.30;;;-9.70;99.90;-11.80;98171.00;;;;5088442;28;20194;-74
2022/12/18 08:16:21;;;;;;;0.30;0.30;;;-9.50;99.90;-11.70;98140.00;;;;5081701;28;20200;-74
2022/12/18 08:18:53;;;;;;;0.30;0.30;;;-9.40;99.90;-11.60;98140.00;;;;5066617;28;20248;-74
2022/12/18 08:21:24;;;;;;;0.30;0.30;;;-9.40;99.90;-11.60;98142.00;;;;5064779;28;20909;-75
2022/12/18 08:23:55;;;;;;;0.30;0.30;;;-9.30;99.90;-11.50;98155.00;;;;5074245;28;20204;-75
2022/12/18 08:26:25;;;;;;;0.30;0.30;;;-9.20;99.90;-11.50;98156.00;;;;5080217;28;20205;-76
2022/12/18 08:28:55;;;;;;;0.30;0.30;;;-9.20;99.90;-11.30;98147.00;;;;5082639;28;20345;-75
2022/12/18 08:31:25;;;;;;;0.40;0.40;;;-9.10;99.90;-11.20;98162.00;;;;5079577;28;20189;-74
2022/12/18 08:33:55;;;;;;;0.20;0.20;;;-9.00;99.90;-11.20;98168.00;;;;5068842;28;20672;-74
2022/12/18 08:36:24;;;;;;;0.40;0.40;;;-9.00;99.90;-11.10;98165.00;;;;5071631;28;20193;-74
2022/12/18 08:38:54;;;;;;;0.20;0.20;;;-8.90;99.90;-11.00;98189.00;;;;5072452;28;20240;-74
2022/12/18 08:41:23;;;;;;;0.40;0.40;;;-8.80;99.90;-11.00;98190.00;;;;5067942;28;20229;-74
2022/12/18 08:46:40;;;;;;;0.30;0.30;;;-8.80;99.90;-11.10;98156.00;;;;5079978;28;20225;-73
2022/12/18 08:49:12;;;;;;;0.30;0.30;;;-8.90;99.90;-11.10;98164.00;;;;5081118;28;20225;-74
2022/12/18 08:51:41;;;;;;;0.30;0.30;;;-8.90;99.90;-10.90;98131.00;;;;5084747;28;20201;-74
2022/12/18 08:54:13;;;;;;;0.30;0.30;;;-8.70;99.90;-10.70;98174.00;;;;5079765;28;20269;-73
2022/12/18 08:56:41;;;;;;;0.40;0.40;;;-8.60;99.90;-10.60;98162.00;;;;5077135;28;20885;-73
2022/12/18 08:59:10;;;;;;;0.28;0.28;;;-8.40;99.90;-10.40;98185.00;;;;5061944;28;20271;-73
2022/12/18 09:01:47;;;;;;;0.40;0.40;;;-8.20;99.90;-10.10;98108.00;;;;5067929;28;20276;-74
2022/12/18 09:04:17;;;;;;;0.20;0.20;;;-8.00;99.90;-9.80;98198.00;;;;5066875;28;20735;-75
2022/12/18 09:06:45;;;;;;;0.30;0.30;;;-7.70;99.90;-9.70;98203.00;;;;5083609;28;20218;-73
2022/12/18 09:09:13;;;;;;;0.30;0.30;;;-7.60;99.90;-9.60;98203.00;;;;5079665;28;20393;-73
2022/12/18 09:11:42;;;;;;;0.28;0.28;;;-7.50;99.90;-9.70;98173.00;;;;5080522;28;20233;-73
2022/12/18 09:14:11;;;;;;;0.30;0.30;;;-7.60;99.90;-9.70;98184.00;;;;5072701;28;20612;-74
2022/12/18 09:16:39;;;;;;;0.20;0.20;;;-7.60;99.90;-9.50;98181.00;;;;5079731;28;20608;-72
2022/12/18 09:19:07;;;;;;;0.20;0.20;;;-7.40;99.90;-9.40;98179.00;;;;5062939;28;20252;-74
2022/12/18 09:21:37;;;;;;;0.30;0.30;;;-7.30;99.90;-9.10;98193.00;;;;5079370;28;20200;-74
2022/12/18 09:24:14;;;;;;;0.30;0.30;;;-7.10;99.90;-8.90;98086.00;;;;5068185;28;20206;-74
2022/12/18 09:26:42;;;;;;;0.20;0.20;;;-6.90;99.90;-8.80;98176.00;;;;5081651;28;20184;-73
2022/12/18 09:29:14;;;;;;;0.30;0.30;;;-6.80;99.90;-8.70;98188.00;;;;5078085;28;20225;-73
2022/12/18 09:31:43;;;;;;;0.30;0.30;;;-6.70;99.90;-8.70;98161.00;;;;5080198;28;20196;-73
2022/12/18 09:34:12;;;;;;;0.30;0.30;;;-6.60;99.90;-8.40;98176.00;;;;5066486;28;20198;-75
2022/12/18 09:36:41;;;;;;;0.30;0.30;;;-6.40;99.90;-8.20;98166.00;;;;5066796;28;20187;-75
2022/12/18 09:39:10;;;;;;;0.20;0.20;;;-6.20;99.90;-8.10;98177.00;;;;5073263;28;20279;-73
2022/12/18 09:41:53;;;;;;;0.30;0.30;;;-6.10;99.90;-7.90;98203.00;;;;5074561;28;20217;-75
2022/12/18 09:44:26;;;;;;;0.20;0.20;;;-5.90;99.90;-7.70;98226.00;;;;5075005;28;20198;-73
2022/12/18 09:47:13;;;;;;;0.30;0.30;;;-5.80;99.90;-7.60;98203.00;;;;5079915;28;20201;-73
2022/12/18 09:49:45;;;;;;;0.30;0.30;;;-5.60;99.90;-7.90;98192.00;;;;5084252;28;20224;-73
2022/12/18 09:52:23;;;;;;;0.30;0.30;;;-5.50;99.90;-7.30;98202.00;;;;5082938;28;20281;-73
2022/12/18 09:55:01;;;;;;;0.30;0.30;;;-5.40;99.90;-7.00;98210.00;;;;5076965;28;20224;-74
2022/12/18 09:57:34;;;;;;;0.30;0.30;;;-5.20;99.90;-7.00;98105.00;;;;5076816;28;20255;-74
2022/12/18 10:00:17;;;;;;;0.25;0.25;;;-5.10;99.90;-6.90;98219.00;;;;5072662;28;20213;-75
2022/12/18 10:02:46;;;;;;;0.30;0.30;;;-5.00;99.90;-6.80;98183.00;;;;5084025;28;20193;-73
2022/12/18 10:05:29;;;;;;;0.20;0.20;;;-4.90;99.90;-6.80;98178.00;;;;5086121;28;20208;-73
2022/12/18 10:08:07;;;;;;;0.20;0.20;;;-4.90;99.90;-6.70;98189.00;;;;5076430;28;20541;-73
2022/12/18 10:10:44;;;;;;;0.30;0.30;;;-4.80;99.90;-6.50;98177.00;;;;5082869;28;20193;-73
2022/12/18 10:13:25;;;;;;;0.30;0.30;;;-4.60;99.90;-6.40;98114.00;;;;5076884;28;20201;-73
2022/12/18 10:16:10;;;;;;;0.20;0.20;;;-4.50;99.90;-6.20;98187.00;;;;5069913;28;20193;-73
2022/12/18 10:19:07;;;;;;;0.20;0.20;;;-4.40;99.90;-6.20;98168.00;;;;5084404;28;20296;-73
2022/12/18 10:21:47;;;;;;;0.20;0.20;;;-4.30;99.90;-6.10;98173.00;;;;5082828;28;20212;-74
2022/12/18 10:24:27;;;;;;;0.20;0.20;;;-4.20;99.90;-6.10;98176.00;;;;5076228;28;20196;-75
2022/12/18 10:27:05;;;;;;;0.20;0.20;;;-4.20;99.90;-6.00;98176.00;;;;5081548;28;20200;-75
2022/12/18 10:29:33;;;;;;;0.30;0.30;;;-4.10;99.90;-5.90;98173.00;;;;5084426;28;20346;-75
2022/12/18 10:32:01;;;;;;;0.30;0.30;;;-4.00;99.90;-5.80;98182.00;;;;5081158;28;20271;-74
2022/12/18 10:34:29;;;;;;;0.20;0.20;;;-3.90;99.90;-5.70;98182.00;;;;5078921;28;20603;-73
2022/12/18 10:36:58;;;;;;;0.20;0.20;;;-3.80;99.90;-5.60;98175.00;;;;5079485;28;20681;-72
2022/12/18 10:39:27;;;;;;;0.30;0.30;;;-3.70;99.90;-5.50;98175.00;;;;5079104;28;20393;-73
2022/12/18 10:42:13;;;;;;;0.20;0.20;;;-3.60;99.90;-5.30;98177.00;;;;5071752;28;20205;-72
2022/12/18 10:44:42;;;;;;;0.22;0.22;;;-3.50;99.90;-5.20;98170.00;;;;5080821;28;20673;-73
2022/12/18 10:47:16;;;;;;;0.30;0.30;;;-3.40;99.90;-5.00;98168.00;;;;5076129;28;20325;-73
2022/12/18 10:49:54;;;;;;;0.20;0.20;;;-3.20;99.90;-4.80;98194.00;;;;5079325;28;20634;-73
2022/12/18 10:52:26;;;;;;;0.30;0.30;;;-3.10;99.90;-4.60;98211.00;;;;5081939;28;20254;-74
2022/12/18 10:55:01;;;;;;;0.30;0.30;;;-2.80;99.90;-4.40;98186.00;;;;5085757;28;20614;-74
2022/12/18 10:57:36;;;;;;;0.20;0.20;;;-2.60;99.90;-4.30;98181.00;;;;5081656;28;20197;-73
2022/12/18 11:00:25;;;;;;;0.30;0.30;;;-2.50;99.90;-4.20;98177.00;;;;5076986;28;20229;-73
2022/12/18 11:02:55;;;;;;;0.20;0.20;;;-2.40;99.90;-4.00;98186.00;;;;5075820;28;20202;-73
2022/12/18 11:05:31;;;;;;;0.20;0.20;;;-2.20;99.90;-3.90;98194.00;;;;5078432;28;20495;-73
2022/12/18 11:08:01;;;;;;;0.17;0.17;;;-2.20;99.90;-3.80;98203.00;;;;5081697;28;20197;-74
2022/12/18 11:10:34;;;;;;;0.20;0.20;;;-2.10;99.90;-3.70;98191.00;;;;5080054;28;20227;-73
2022/12/18 11:13:21;;;;;;;0.20;0.20;;;-2.00;99.90;-3.60;98187.00;;;;5085402;28;20197;-73